Time;durP1;ratioP1;P1;durP2;ratioP2;P2;SDS_P1;SDS_P2;PMS_P1;PMS_P2;Temp;Humidity;BMP_temperature;BMP_pressure;BME280_temperature;BME280_humidity;BME280_pressure;Samples;Min_cycle;Max_cycle;Signal;HPM_P1;HPM_P2
2023/04/23 00:01:56;;;;;;;47.40;31.42;;;;;;;13.19;nan;97679.00;5037444;28;20452;-77
2023/04/23 00:04:49;;;;;;;45.53;30.88;;;;;;;13.25;nan;97675.38;5040308;28;20040;-76
2023/04/23 00:07:34;;;;;;;31.60;20.80;;;;;;;13.29;nan;97673.03;5034041;28;20044;-78
2023/04/23 00:10:18;;;;;;;49.97;33.30;;;;;;;13.24;nan;97665.88;5037181;28;20048;-77
2023/04/23 00:13:03;;;;;;;46.15;30.70;;;;;;;13.24;nan;97667.69;5034848;28;20044;-77
2023/04/23 00:15:47;;;;;;;55.95;35.10;;;;;;;13.18;nan;97648.41;5033496;28;20080;-77
2023/04/23 00:18:31;;;;;;;51.25;34.47;;;;;;;13.25;nan;97662.19;5032962;28;20386;-77
2023/04/23 00:21:15;;;;;;;51.50;33.40;;;;;;;13.25;nan;97656.09;5037526;28;20045;-78
2023/04/23 00:24:00;;;;;;;54.00;32.28;;;;;;;13.19;nan;97649.19;5040523;28;20097;-77
2023/04/23 00:26:44;;;;;;;48.38;32.33;;;;;;;13.22;nan;97654.78;5033361;28;20131;-78
2023/04/23 00:29:28;;;;;;;50.00;33.75;;;;;;;13.21;nan;97647.91;5031488;28;20044;-78
2023/04/23 00:32:13;;;;;;;50.20;34.58;;;;;;;13.28;nan;97639.84;5031631;28;20072;-78
2023/04/23 00:34:58;;;;;;;54.30;34.28;;;;;;;13.03;nan;97625.31;5033457;28;20438;-78
2023/04/23 00:37:42;;;;;;;51.03;34.47;;;;;;;13.03;nan;97627.16;5038489;28;20091;-78
2023/04/23 00:40:26;;;;;;;54.97;35.88;;;;;;;13.02;nan;97630.84;5040977;28;20151;-79
2023/04/23 00:43:10;;;;;;;56.75;37.55;;;;;;;13.07;nan;97623.78;5041910;28;20533;-78
2023/04/23 00:45:54;;;;;;;50.92;33.58;;;;;;;13.16;nan;97623.34;5039339;28;20160;-78
2023/04/23 00:48:39;;;;;;;53.15;35.00;;;;;;;13.12;nan;97618.56;5038770;28;20052;-78
2023/04/23 00:51:23;;;;;;;53.65;34.97;;;;;;;13.06;nan;97616.13;5040649;28;20060;-78
2023/04/23 00:54:07;;;;;;;54.42;34.80;;;;;;;13.21;nan;97620.75;5041929;28;20044;-78
2023/04/23 00:56:52;;;;;;;54.92;36.00;;;;;;;13.29;nan;97613.22;5049580;28;20533;-77
2023/04/23 00:59:39;;;;;;;57.00;37.15;;;;;;;13.16;nan;97602.28;5043772;28;20040;-78
2023/04/23 01:02:27;;;;;;;57.25;36.90;;;;;;;13.20;nan;97596.28;5044283;28;20048;-78
2023/04/23 01:05:13;;;;;;;55.70;36.40;;;;;;;13.21;nan;97586.50;5041325;28;20048;-77
2023/04/23 01:07:57;;;;;;;59.70;38.08;;;;;;;13.06;nan;97589.78;5046433;28;20036;-77
2023/04/23 01:10:44;;;;;;;60.90;39.13;;;;;;;13.14;nan;97592.78;5038490;28;20091;-78
2023/04/23 01:13:29;;;;;;;56.47;37.70;;;;;;;13.20;nan;97587.56;5041891;28;20052;-77
2023/04/23 01:16:13;;;;;;;56.20;37.03;;;;;;;13.19;nan;97586.78;5040531;28;20125;-78
2023/04/23 01:18:57;;;;;;;63.28;38.40;;;;;;;13.05;nan;97588.97;5042170;28;20056;-78
2023/04/23 01:21:42;;;;;;;55.72;37.30;;;;;;;13.06;nan;97587.16;5038444;28;20498;-78
2023/04/23 01:24:30;;;;;;;56.78;37.13;;;;;;;13.25;nan;97588.41;5043664;28;20048;-78
2023/04/23 01:27:15;;;;;;;63.63;38.60;;;;;;;13.10;nan;97575.06;5040928;28;20051;-78
2023/04/23 01:30:00;;;;;;;58.08;37.95;;;;;;;13.27;nan;97575.78;5041895;28;20133;-78
2023/04/23 01:32:45;;;;;;;57.10;37.03;;;;;;;13.23;nan;97566.78;5042024;28;20040;-78
2023/04/23 01:35:30;;;;;;;56.25;35.97;;;;;;;13.31;nan;97577.91;5042035;28;20502;-78
2023/04/23 01:38:14;;;;;;;60.47;38.67;;;;;;;13.28;nan;97572.09;5034898;28;20049;-78
2023/04/23 01:40:59;;;;;;;61.40;39.90;;;;;;;13.27;nan;97575.78;5036378;28;20053;-78
2023/04/23 01:43:44;;;;;;;64.95;40.75;;;;;;;13.23;nan;97574.69;5037611;28;20112;-78
2023/04/23 01:46:29;;;;;;;63.50;39.63;;;;;;;13.14;nan;97573.53;5034032;28;20044;-79
2023/04/23 01:49:16;;;;;;;64.40;39.60;;;;;;;13.10;nan;97572.44;5035368;28;20090;-78
2023/04/23 01:52:00;;;;;;;61.97;40.08;;;;;;;13.12;nan;97571.16;5041447;28;20071;-78
2023/04/23 01:54:44;;;;;;;66.47;41.97;;;;;;;13.08;nan;97564.78;5043363;28;20128;-79
2023/04/23 01:57:28;;;;;;;58.65;38.85;;;;;;;13.19;nan;97562.25;5040016;28;20095;-77
2023/04/23 02:00:14;;;;;;;69.35;41.88;;;;;;;13.15;nan;97567.22;5038940;28;20036;-78
2023/04/23 02:02:58;;;;;;;67.72;43.38;;;;;;;13.17;nan;97565.16;5044345;28;20533;-79
2023/04/23 02:05:42;;;;;;;68.38;42.63;;;;;;;12.94;nan;97556.47;5041628;28;20600;-79
2023/04/23 02:08:27;;;;;;;64.65;41.65;;;;;;;13.12;nan;97557.19;5038426;28;20497;-78
2023/04/23 02:11:11;;;;;;;66.60;42.67;;;;;;;13.03;nan;97559.44;5038212;28;20047;-79
2023/04/23 02:13:55;;;;;;;76.65;44.10;;;;;;;13.04;nan;97552.34;5043111;28;20389;-78
2023/04/23 02:16:39;;;;;;;67.10;42.33;;;;;;;13.10;nan;97548.72;5040556;28;20507;-78
2023/04/23 02:19:23;;;;;;;73.75;44.67;;;;;;;13.07;nan;97549.22;5036312;28;20091;-78
2023/04/23 02:22:08;;;;;;;79.57;46.28;;;;;;;12.89;nan;97548.50;5037376;28;20119;-78
2023/04/23 02:24:52;;;;;;;68.35;44.22;;;;;;;12.81;nan;97543.69;5037162;28;20059;-78
2023/04/23 02:27:36;;;;;;;73.63;44.72;;;;;;;12.97;nan;97540.19;5038367;28;20048;-78
2023/04/23 02:30:21;;;;;;;74.10;44.10;;;;;;;12.89;nan;97543.25;5031747;28;20514;-78
2023/04/23 02:33:05;;;;;;;75.07;44.63;;;;;;;12.81;nan;97543.69;5038439;28;20557;-78
2023/04/23 02:35:49;;;;;;;74.47;45.15;;;;;;;12.88;nan;97539.03;5045104;28;20048;-79
2023/04/23 02:38:33;;;;;;;74.15;44.83;;;;;;;12.80;nan;97539.47;5040456;28;20072;-78
2023/04/23 02:41:17;;;;;;;72.85;44.25;;;;;;;12.83;nan;97538.97;5040151;28;20071;-78
2023/04/23 02:44:01;;;;;;;74.40;43.38;;;;;;;12.58;nan;97537.63;5039255;28;20040;-78
2023/04/23 02:46:46;;;;;;;71.47;44.25;;;;;;;12.91;nan;97538.53;5040284;28;20043;-78
2023/04/23 02:49:30;;;;;;;73.65;43.38;;;;;;;12.61;nan;97542.41;5037530;28;20039;-78
2023/04/23 02:52:14;;;;;;;69.70;42.35;;;;;;;12.58;nan;97542.91;5040469;28;20048;-78
2023/04/23 02:55:00;;;;;;;72.10;43.95;;;;;;;12.46;nan;97534.31;5040110;28;20040;-77
2023/04/23 02:57:45;;;;;;;71.82;42.80;;;;;;;12.64;nan;97538.47;5039490;28;20098;-77
2023/04/23 03:00:30;;;;;;;67.20;40.95;;;;;;;12.74;nan;97537.78;5033976;28;20103;-77
2023/04/23 03:03:14;;;;;;;63.22;40.13;;;;;;;12.54;nan;97532.06;5041415;28;20060;-77
2023/04/23 03:05:59;;;;;;;67.00;39.90;;;;;;;12.45;nan;97538.75;5038453;28;20044;-78
2023/04/23 03:08:44;;;;;;;65.82;39.05;;;;;;;12.61;nan;97531.88;5036319;28;20152;-78
2023/04/23 03:11:28;;;;;;;63.83;39.90;;;;;;;12.38;nan;97533.69;5046821;28;20450;-77
2023/04/23 03:14:12;;;;;;;62.55;39.47;;;;;;;12.52;nan;97533.31;5039059;28;20139;-77
2023/04/23 03:16:56;;;;;;;61.60;37.42;;;;;;;12.23;nan;97525.59;5035766;28;20126;-77
2023/04/23 03:19:40;;;;;;;63.40;37.92;;;;;;;12.48;nan;97517.25;5041429;28;20036;-76
2023/04/23 03:22:24;;;;;;;61.25;37.05;;;;;;;12.50;nan;97527.50;5037607;28;20537;-77
2023/04/23 03:25:08;;;;;;;61.55;37.33;;;;;;;12.51;nan;97524.66;5035989;28;20540;-78
2023/04/23 03:27:52;;;;;;;60.40;37.25;;;;;;;12.65;nan;97517.19;5039641;28;20040;-78
2023/04/23 03:30:37;;;;;;;59.95;37.55;;;;;;;11.76;nan;97517.00;5035555;28;20055;-77
2023/04/23 03:33:20;;;;;;;59.10;36.42;;;;;;;12.46;nan;97521.94;5037139;28;20102;-77
2023/04/23 03:36:05;;;;;;;63.20;38.97;;;;;;;12.04;nan;97512.72;5042982;28;20048;-78
2023/04/23 03:38:49;;;;;;;62.72;38.20;;;;;;;12.33;nan;97520.47;5036438;28;20040;-78
2023/04/23 03:41:33;;;;;;;66.38;39.42;;;;;;;12.12;nan;97514.16;5036691;28;20391;-76
2023/04/23 03:44:17;;;;;;;69.72;41.05;;;;;;;12.33;nan;97519.69;5035461;28;20087;-75
2023/04/23 03:47:01;;;;;;;69.97;41.25;;;;;;;11.97;nan;97512.03;5039884;28;20451;-76
2023/04/23 03:49:45;;;;;;;68.90;40.25;;;;;;;12.29;nan;97516.72;5039970;28;20514;-76
2023/04/23 03:52:29;;;;;;;70.03;41.67;;;;;;;11.81;nan;97519.72;5035079;28;20083;-75
2023/04/23 03:55:13;;;;;;;68.22;41.50;;;;;;;12.06;nan;97520.34;5042241;28;20048;-76
2023/04/23 03:58:00;;;;;;;73.38;42.03;;;;;;;12.13;nan;97511.25;5036457;28;20128;-76
2023/04/23 04:00:44;;;;;;;72.75;43.25;;;;;;;12.06;nan;97513.28;5037118;28;20387;-76
2023/04/23 04:03:28;;;;;;;67.45;41.15;;;;;;;12.45;nan;97509.81;5039961;28;20091;-75
2023/04/23 04:06:12;;;;;;;71.88;41.40;;;;;;;12.14;nan;97510.22;5036943;28;20051;-76
2023/04/23 04:08:56;;;;;;;72.88;43.78;;;;;;;11.81;nan;97501.31;5034382;28;20044;-75
2023/04/23 04:11:40;;;;;;;75.90;44.53;;;;;;;11.88;nan;97502.97;5039297;28;20040;-75
2023/04/23 04:14:25;;;;;;;67.93;41.40;;;;;;;12.11;nan;97508.06;5040986;28;20102;-75
2023/04/23 04:17:09;;;;;;;75.82;44.08;;;;;;;11.69;nan;97500.59;5043566;28;20175;-76
2023/04/23 04:19:53;;;;;;;73.95;42.28;;;;;;;11.97;nan;97496.25;5040737;28;20096;-76
2023/04/23 04:22:38;;;;;;;83.63;45.25;;;;;;;11.83;nan;97501.06;5035283;28;20462;-76
2023/04/23 04:25:23;;;;;;;71.85;44.35;;;;;;;11.99;nan;97499.47;5036825;28;20052;-76
2023/04/23 04:28:08;;;;;;;83.78;44.92;;;;;;;11.51;nan;97502.44;5046385;28;20054;-76
2023/04/23 04:30:52;;;;;;;81.95;46.08;;;;;;;11.99;nan;97500.25;5037792;28;20048;-75
2023/04/23 04:33:38;;;;;;;86.40;49.78;;;;;;;11.78;nan;97501.78;5040997;28;20520;-77
2023/04/23 04:36:24;;;;;;;84.45;47.88;;;;;;;11.89;nan;97499.31;5039792;28;20056;-76
2023/04/23 04:39:09;;;;;;;88.57;49.28;;;;;;;12.04;nan;97501.38;5046625;28;20044;-75
2023/04/23 04:41:54;;;;;;;86.13;46.67;;;;;;;11.73;nan;97511.44;5036343;28;20126;-76
2023/04/23 04:44:38;;;;;;;83.75;46.05;;;;;;;11.68;nan;97502.41;5048730;28;20120;-76
2023/04/23 04:47:22;;;;;;;84.03;46.38;;;;;;;11.92;nan;97498.84;5038464;28;20096;-78
2023/04/23 04:50:06;;;;;;;86.93;47.65;;;;;;;11.86;nan;97509.28;5048248;28;20175;-78
2023/04/23 04:52:51;;;;;;;84.05;47.50;;;;;;;11.73;nan;97509.59;5038830;28;20043;-78
2023/04/23 04:55:34;;;;;;;84.25;46.00;;;;;;;12.05;nan;97502.97;5047811;28;20406;-77
2023/04/23 04:58:18;;;;;;;79.45;45.97;;;;;;;11.96;nan;97505.19;5037614;28;20113;-78
2023/04/23 05:01:04;;;;;;;79.57;44.45;;;;;;;11.67;nan;97503.47;5045483;28;20036;-78
2023/04/23 05:03:48;;;;;;;84.35;43.80;;;;;;;11.39;nan;97501.69;5032638;28;20048;-78
2023/04/23 05:06:32;;;;;;;81.97;45.40;;;;;;;11.51;nan;97499.81;5040927;28;20051;-78
2023/04/23 05:09:16;;;;;;;81.18;45.00;;;;;;;11.46;nan;97504.16;5038649;28;20040;-78
2023/04/23 05:12:00;;;;;;;76.13;43.63;;;;;;;11.50;nan;97498.22;5041396;28;20056;-77
2023/04/23 05:14:45;;;;;;;86.15;47.08;;;;;;;11.49;nan;97496.63;5042065;28;20499;-78
2023/04/23 05:17:29;;;;;;;79.20;43.10;;;;;;;11.66;nan;97501.09;5042366;28;20051;-79
2023/04/23 05:20:14;;;;;;;83.03;45.70;;;;;;;11.13;nan;97503.91;5040086;28;20076;-78
2023/04/23 05:22:58;;;;;;;78.85;45.38;;;;;;;11.09;nan;97494.91;5048472;28;20120;-78
2023/04/23 05:25:42;;;;;;;85.63;46.15;;;;;;;11.60;nan;97499.44;5039810;28;20048;-77
2023/04/23 05:28:26;;;;;;;85.95;47.00;;;;;;;11.39;nan;97499.06;5037698;28;20052;-78
2023/04/23 05:31:10;;;;;;;79.07;46.45;;;;;;;11.34;nan;97505.06;5031995;28;20051;-76
2023/04/23 05:33:54;;;;;;;88.00;46.25;;;;;;;11.75;nan;97502.25;5042860;28;20399;-78
2023/04/23 05:36:39;;;;;;;80.63;44.83;;;;;;;11.97;nan;97496.25;5038361;28;20052;-78
2023/04/23 05:39:23;;;;;;;81.88;45.33;;;;;;;11.88;nan;97502.97;5037473;28;20098;-78
2023/04/23 05:42:07;;;;;;;75.30;41.50;;;;;;;11.84;nan;97498.22;5038083;28;20174;-78
2023/04/23 05:44:51;;;;;;;75.68;43.13;;;;;;;11.82;nan;97499.47;5038318;28;20620;-79
2023/04/23 05:47:35;;;;;;;65.22;39.60;;;;;;;11.71;nan;97501.16;5035820;28;20059;-79
2023/04/23 05:50:20;;;;;;;69.35;39.80;;;;;;;11.37;nan;97503.75;5035981;28;20039;-79
2023/04/23 05:53:05;;;;;;;65.75;39.22;;;;;;;11.23;nan;97496.22;5045693;28;20165;-79
2023/04/23 05:55:49;;;;;;;67.28;38.90;;;;;;;11.18;nan;97496.09;5039820;28;20396;-79
2023/04/23 05:58:33;;;;;;;69.75;40.35;;;;;;;11.15;nan;97499.19;5034603;28;20036;-79
2023/04/23 06:01:17;;;;;;;65.50;39.05;;;;;;;11.37;nan;97499.31;5041925;28;20076;-81
2023/04/23 06:04:01;;;;;;;73.80;40.38;;;;;;;11.50;nan;97498.22;5042284;28;20436;-78
2023/04/23 06:06:45;;;;;;;71.63;40.47;;;;;;;10.97;nan;97505.47;5041162;28;20083;-78
2023/04/23 06:09:29;;;;;;;80.85;43.67;;;;;;;11.28;nan;97498.09;5036308;28;20036;-79
2023/04/23 06:12:13;;;;;;;68.40;40.20;;;;;;;11.16;nan;97500.78;5038120;28;20462;-81
2023/04/23 06:14:57;;;;;;;71.03;39.95;;;;;;;11.69;nan;97505.88;5031983;28;21885;-80
2023/04/23 06:17:41;;;;;;;75.18;40.67;;;;;;;11.64;nan;97506.56;5030894;28;20118;-79
2023/04/23 06:20:25;;;;;;;68.75;39.20;;;;;;;11.58;nan;97500.44;5032275;28;20523;-81
2023/04/23 06:23:11;;;;;;;63.17;37.25;;;;;;;11.62;nan;97506.00;5031589;28;20069;-79
2023/04/23 06:25:55;;;;;;;62.83;36.90;;;;;;;11.62;nan;97503.38;5036988;28;20043;-83
2023/04/23 06:28:41;;;;;;;65.03;38.85;;;;;;;11.53;nan;97502.22;5040746;28;20391;-83
2023/04/23 06:31:26;;;;;;;68.47;38.72;;;;;;;11.79;nan;97499.97;5038725;28;20059;-81
2023/04/23 06:34:11;;;;;;;63.03;38.47;;;;;;;11.56;nan;97502.50;5035862;28;20537;-81
2023/04/23 06:36:55;;;;;;;64.85;38.72;;;;;;;11.50;nan;97492.97;5042137;28;20092;-79
2023/04/23 06:39:39;;;;;;;71.05;40.13;;;;;;;11.42;nan;97501.25;5038958;28;20043;-79
2023/04/23 06:42:23;;;;;;;69.03;40.67;;;;;;;11.49;nan;97504.50;5035778;28;20043;-79
2023/04/23 06:45:07;;;;;;;66.75;40.05;;;;;;;11.10;nan;97493.88;5041225;28;20109;-81
2023/04/23 06:47:51;;;;;;;74.18;41.42;;;;;;;11.15;nan;97507.09;5037257;28;20049;-79
2023/04/23 06:50:39;;;;;;;73.57;42.50;;;;;;;11.52;nan;97504.03;5030564;28;20106;-78
2023/04/23 06:53:23;;;;;;;71.43;41.13;;;;;;;11.66;nan;97501.88;5027989;28;20080;-79
2023/04/23 06:56:07;;;;;;;69.82;40.63;;;;;;;11.47;nan;97497.88;5035020;28;20063;-79
2023/04/23 06:58:52;;;;;;;72.95;41.65;;;;;;;11.48;nan;97500.28;5031594;28;20441;-80
2023/04/23 07:01:36;;;;;;;69.90;41.83;;;;;;;11.68;nan;97499.00;5037756;28;20044;-80
2023/04/23 07:04:20;;;;;;;67.65;38.42;;;;;;;11.96;nan;97492.84;5036818;28;20055;-80
2023/04/23 07:07:05;;;;;;;66.85;39.92;;;;;;;11.72;nan;97508.00;5032688;28;20045;-80
2023/04/23 07:09:52;;;;;;;65.57;39.45;;;;;;;11.74;nan;97508.56;5031494;28;20555;-80
2023/04/23 07:12:37;;;;;;;65.95;39.58;;;;;;;11.78;nan;97501.78;5030082;28;20048;-79
2023/04/23 07:15:22;;;;;;;62.03;37.20;;;;;;;11.70;nan;97512.72;5033635;28;20061;-80
2023/04/23 07:18:07;;;;;;;58.95;35.38;;;;;;;11.46;nan;97507.63;5030545;28;20047;-82
2023/04/23 07:20:51;;;;;;;55.72;34.50;;;;;;;11.56;nan;97506.97;5033143;28;20124;-80
2023/04/23 07:23:35;;;;;;;57.42;35.92;;;;;;;11.05;nan;97499.03;5036859;28;20525;-78
2023/04/23 07:26:20;;;;;;;62.10;37.50;;;;;;;11.44;nan;97507.06;5039577;28;20117;-78
2023/04/23 07:29:09;;;;;;;63.20;36.88;;;;;;;11.94;nan;97502.00;5037691;28;20036;-78
2023/04/23 07:31:53;;;;;;;63.35;36.33;;;;;;;12.10;nan;97492.56;5036114;28;20044;-78
2023/04/23 07:34:37;;;;;;;53.60;33.63;;;;;;;11.99;nan;97504.72;5034410;28;20044;-78
2023/04/23 07:37:22;;;;;;;51.88;31.05;;;;;;;12.20;nan;97500.56;5040493;28;20103;-81
2023/04/23 07:40:07;;;;;;;50.42;31.73;;;;;;;11.98;nan;97508.38;5035936;28;20120;-82
2023/04/23 07:42:51;;;;;;;51.38;33.17;;;;;;;11.99;nan;97504.72;5038781;28;20044;-84
2023/04/23 07:45:35;;;;;;;53.80;32.53;;;;;;;12.17;nan;97508.94;5038045;28;20082;-82
2023/04/23 07:48:19;;;;;;;49.55;31.63;;;;;;;12.00;nan;97519.47;5037469;28;20415;-80
2023/04/23 07:51:05;;;;;;;51.50;30.88;;;;;;;12.32;nan;97515.47;5035677;28;21605;-79
2023/04/23 07:53:50;;;;;;;53.80;32.15;;;;;;;11.94;nan;97518.59;5032177;28;20126;-80
2023/04/23 07:56:35;;;;;;;44.22;28.73;;;;;;;12.12;nan;97509.66;5031829;28;20093;-79
2023/04/23 07:59:19;;;;;;;43.15;28.67;;;;;;;12.10;nan;97506.47;5032708;28;20048;-80
2023/04/23 08:02:04;;;;;;;47.80;30.23;;;;;;;11.55;nan;97510.66;5031039;28;20090;-81
2023/04/23 08:04:49;;;;;;;45.30;29.17;;;;;;;11.68;nan;97514.78;5036858;28;20406;-81
2023/04/23 08:07:33;;;;;;;44.83;28.95;;;;;;;12.07;nan;97512.22;5045430;28;20110;-78
2023/04/23 08:10:17;;;;;;;43.88;28.70;;;;;;;11.80;nan;97518.13;5037267;28;20047;-80
2023/04/23 08:13:01;;;;;;;45.60;28.42;;;;;;;12.11;nan;97513.34;5038010;28;20513;-78
2023/04/23 08:15:47;;;;;;;46.10;29.08;;;;;;;12.10;nan;97514.38;5032845;28;20542;-79
2023/04/23 08:18:32;;;;;;;44.08;29.05;;;;;;;12.29;nan;97514.09;5041277;28;20043;-79
2023/04/23 08:21:16;;;;;;;49.88;28.23;;;;;;;12.54;nan;97515.44;5038429;28;20044;-80
2023/04/23 08:24:01;;;;;;;41.08;26.95;;;;;;;12.60;nan;97518.94;5031743;28;20180;-80
2023/04/23 08:26:47;;;;;;;36.42;25.20;;;;;;;11.91;nan;97528.78;5040373;28;20167;-81
2023/04/23 08:29:31;;;;;;;40.85;26.10;;;;;;;12.31;nan;97519.91;5032766;28;20176;-80
2023/04/23 08:32:15;;;;;;;39.22;25.92;;;;;;;12.58;nan;97527.09;5039358;28;20503;-79
2023/04/23 08:34:59;;;;;;;33.97;24.40;;;;;;;12.28;nan;97523.03;5038776;28;20400;-78
2023/04/23 08:37:43;;;;;;;37.25;25.65;;;;;;;12.51;nan;97531.72;5044794;28;20125;-80
2023/04/23 08:40:30;;;;;;;40.63;25.48;;;;;;;12.58;nan;97535.00;5027332;28;20120;-78
2023/04/23 08:43:17;;;;;;;38.17;24.15;;;;;;;12.95;nan;97536.97;5040084;28;20059;-79
2023/04/23 08:46:06;;;;;;;38.67;25.77;;;;;;;12.57;nan;97541.28;5034420;28;20506;-78
2023/04/23 08:48:52;;;;;;;39.85;25.30;;;;;;;12.84;nan;97543.97;5033556;28;20036;-85
2023/04/23 08:51:41;;;;;;;37.28;24.33;;;;;;;12.93;nan;97539.06;5042770;28;20056;-84
2023/04/23 08:54:27;;;;;;;37.13;24.10;;;;;;;13.09;nan;97544.50;5038614;28;20040;-88
2023/04/23 08:57:12;;;;;;;37.13;24.73;;;;;;;12.78;nan;97547.59;5057270;28;20043;-88
2023/04/23 08:59:57;;;;;;;37.80;25.98;;;;;;;12.75;nan;97545.47;5045145;28;20035;-88
2023/04/23 09:02:44;;;;;;;39.85;25.83;;;;;;;12.95;nan;97538.84;5039201;28;20060;-87
2023/04/23 09:05:31;;;;;;;40.92;25.35;;;;;;;13.00;nan;97547.59;5048710;28;20059;-88
2023/04/23 09:08:16;;;;;;;36.95;26.17;;;;;;;12.66;nan;97542.47;5049211;28;20051;-88
2023/04/23 09:11:01;;;;;;;42.03;27.55;;;;;;;12.78;nan;97547.59;5047103;28;20552;-88
2023/04/23 09:13:45;;;;;;;42.17;27.75;;;;;;;12.53;nan;97534.91;5038175;28;20037;-88
2023/04/23 09:16:29;;;;;;;38.78;27.17;;;;;;;13.24;nan;97535.94;5053854;28;20059;-87
2023/04/23 09:19:14;;;;;;;39.65;26.83;;;;;;;13.34;nan;97540.53;5049915;28;20032;-87
2023/04/23 09:22:00;;;;;;;38.17;25.38;;;;;;;13.02;nan;97536.78;5046457;28;20031;-87
2023/04/23 09:24:45;;;;;;;44.90;28.52;;;;;;;12.90;nan;97533.50;5045836;28;20044;-87
2023/04/23 09:27:29;;;;;;;41.97;26.65;;;;;;;12.81;nan;97543.69;5044322;28;20116;-88
2023/04/23 09:30:13;;;;;;;42.15;28.10;;;;;;;12.88;nan;97536.38;5040100;28;20048;-87
2023/04/23 09:32:58;;;;;;;43.47;27.75;;;;;;;12.98;nan;97539.16;5047169;28;20110;-83
2023/04/23 09:35:42;;;;;;;40.90;26.75;;;;;;;13.02;nan;97536.78;5044390;28;20041;-90
2023/04/23 09:38:25;;;;;;;;;;;;;;;12.73;nan;97534.38;5038194;28;20051;-78
2023/04/23 09:41:23;;;;;;;47.15;29.80;;;;;;;12.52;nan;97528.88;5039217;28;20038;-77
2023/04/23 09:44:08;;;;;;;48.90;30.60;;;;;;;12.59;nan;97523.44;5041799;28;20043;-78
2023/04/23 09:46:52;;;;;;;49.63;31.40;;;;;;;12.88;nan;97515.31;5044417;28;20444;-78
2023/04/23 09:49:47;;;;;;;48.10;29.20;;;;;;;13.37;nan;97517.09;5040561;28;20040;-77
2023/04/23 09:52:32;;;;;;;47.30;28.90;;;;;;;13.76;nan;97524.06;5040852;28;20116;-78
2023/04/23 09:55:27;;;;;;;45.85;30.25;;;;;;;14.38;nan;97528.91;5036037;28;20044;-77
2023/04/23 09:58:13;;;;;;;43.53;27.85;;;;;;;14.42;nan;97536.06;5040497;28;20510;-79
2023/04/23 10:01:08;;;;;;;48.17;30.33;;;;;;;14.36;nan;97542.38;5043310;28;20040;-77
2023/04/23 10:03:52;;;;;;;;;;;;;;;14.16;nan;97548.31;5035568;28;20114;-77
2023/04/23 10:06:36;;;;;;;;;;;;;;;14.31;nan;97560.03;5035842;28;19963;-77
2023/04/23 10:09:23;;;;;;;45.33;27.67;;;;;;;14.30;nan;97553.94;5040363;28;19967;-80
2023/04/23 10:12:09;;;;;;;43.85;28.33;;;;;;;13.40;nan;97552.72;5045025;28;20048;-77
2023/04/23 10:14:56;;;;;;;42.83;28.50;;;;;;;13.95;nan;97563.19;5042612;28;20113;-79
2023/04/23 10:17:40;;;;;;;41.95;27.90;;;;;;;14.03;nan;97560.09;5041059;28;20041;-79
2023/04/23 10:20:24;;;;;;;41.60;27.55;;;;;;;14.11;nan;97561.47;5035715;28;20036;-79
2023/04/23 10:23:11;;;;;;;42.03;27.38;;;;;;;14.10;nan;97560.66;5039765;28;20039;-79
2023/04/23 10:25:59;;;;;;;40.63;28.13;;;;;;;13.77;nan;97557.28;5043116;28;20052;-79
2023/04/23 10:28:47;;;;;;;41.85;27.80;;;;;;;13.55;nan;97554.72;5045763;28;20518;-80
2023/04/23 10:31:32;;;;;;;42.95;27.48;;;;;;;13.09;nan;97558.47;5039114;28;20051;-77
2023/04/23 10:34:18;;;;;;;45.45;29.73;;;;;;;13.54;nan;97561.03;5044218;28;20098;-80
2023/04/23 10:37:02;;;;;;;43.80;29.95;;;;;;;13.84;nan;97557.06;5037846;28;20497;-79
2023/04/23 10:39:52;;;;;;;46.85;30.42;;;;;;;13.69;nan;97565.66;5035622;28;20071;-79
2023/04/23 10:42:40;;;;;;;43.70;27.73;;;;;;;13.81;nan;97558.38;5046400;28;20493;-79
2023/04/23 10:45:24;;;;;;;44.17;29.05;;;;;;;13.37;nan;97563.78;5041599;28;20048;-80
2023/04/23 10:48:09;;;;;;;41.30;27.27;;;;;;;13.18;nan;97560.66;5041503;28;20105;-79
2023/04/23 10:51:00;;;;;;;38.75;26.90;;;;;;;13.36;nan;97568.22;5042073;28;20140;-79
2023/04/23 10:53:44;;;;;;;42.03;27.40;;;;;;;13.64;nan;97560.34;5038698;28;20039;-80
2023/04/23 10:56:29;;;;;;;44.97;29.67;;;;;;;13.69;nan;97573.56;5039716;28;20120;-80
2023/04/23 10:59:21;;;;;;;42.15;28.00;;;;;;;13.88;nan;97578.44;5036726;28;20040;-79
2023/04/23 11:02:09;;;;;;;42.75;28.92;;;;;;;13.76;nan;97576.81;5040705;28;20086;-78
2023/04/23 11:04:57;;;;;;;43.17;26.77;;;;;;;13.10;nan;97570.59;5038705;28;20044;-79
2023/04/23 11:07:41;;;;;;;42.58;28.45;;;;;;;12.93;nan;97570.66;5040919;28;20040;-79
2023/04/23 11:10:25;;;;;;;41.80;27.85;;;;;;;13.20;nan;97563.84;5040404;28;20487;-79
2023/04/23 11:13:21;;;;;;;38.85;26.05;;;;;;;12.93;nan;97569.88;5037471;28;20155;-80
2023/04/23 11:16:15;;;;;;;38.60;26.83;;;;;;;13.11;nan;97574.84;5040285;28;20404;-79
2023/04/23 11:19:03;;;;;;;39.55;26.23;;;;;;;12.82;nan;97571.59;5040603;28;20099;-80
2023/04/23 11:22:05;;;;;;;36.85;26.10;;;;;;;13.39;nan;97572.22;5039998;28;20107;-79
2023/04/23 11:24:49;;;;;;;40.70;24.98;;;;;;;13.94;nan;97562.41;5040521;28;20045;-79
2023/04/23 11:27:38;;;;;;;34.50;24.27;;;;;;;14.40;nan;97575.13;5035498;28;20411;-79
2023/04/23 11:30:24;;;;;;;35.60;23.13;;;;;;;14.81;nan;97560.53;5037875;28;20102;-79
2023/04/23 11:33:08;;;;;;;31.83;22.85;;;;;;;15.27;nan;97560.66;5036842;28;20059;-79
2023/04/23 11:35:53;;;;;;;36.08;23.23;;;;;;;15.20;nan;97554.84;5044792;28;20040;-79
2023/04/23 11:38:37;;;;;;;32.80;23.25;;;;;;;15.91;nan;97567.59;5038954;28;20063;-79
2023/04/23 11:41:22;;;;;;;34.53;22.63;;;;;;;15.71;nan;97574.47;5036593;28;20567;-79
2023/04/23 11:44:07;;;;;;;32.97;23.73;;;;;;;15.47;nan;97574.19;5041486;28;20055;-79
2023/04/23 11:46:51;;;;;;;33.80;22.88;;;;;;;15.65;nan;97580.81;5043002;28;20406;-79
2023/04/23 11:49:37;;;;;;;32.28;23.25;;;;;;;14.89;nan;97575.88;5041041;28;20045;-79
2023/04/23 11:52:21;;;;;;;33.75;22.83;;;;;;;15.08;nan;97586.00;5039160;28;20113;-78
2023/04/23 11:55:06;;;;;;;36.08;23.92;;;;;;;14.69;nan;97587.94;5033799;28;20068;-79
2023/04/23 11:57:51;;;;;;;35.83;24.45;;;;;;;13.89;nan;97593.22;5033106;28;20040;-79
2023/04/23 12:00:36;;;;;;;35.70;24.38;;;;;;;14.00;nan;97585.13;5037436;28;20505;-79
2023/04/23 12:03:24;;;;;;;39.33;24.75;;;;;;;13.42;nan;97592.81;5035993;28;20075;-78
2023/04/23 12:06:09;;;;;;;41.88;26.40;;;;;;;13.47;nan;97592.88;5040961;28;20087;-79
2023/04/23 12:08:53;;;;;;;38.92;25.63;;;;;;;13.64;nan;97599.88;5037141;28;20060;-79
2023/04/23 12:11:38;;;;;;;44.42;27.38;;;;;;;13.39;nan;97602.00;5042061;28;20477;-78
2023/04/23 12:14:29;;;;;;;46.83;28.38;;;;;;;13.35;nan;97608.00;5035917;28;20120;-79
2023/04/23 12:17:13;;;;;;;41.35;26.70;;;;;;;13.13;nan;97609.63;5040214;28;20056;-79
2023/04/23 12:19:57;;;;;;;43.38;27.48;;;;;;;13.07;nan;97610.63;5037841;28;20391;-79
2023/04/23 12:22:41;;;;;;;38.00;24.48;;;;;;;13.06;nan;97606.38;5040458;28;20040;-79
2023/04/23 12:25:25;;;;;;;34.72;23.33;;;;;;;13.09;nan;97615.63;5040143;28;20129;-79
2023/04/23 12:28:10;;;;;;;34.80;22.85;;;;;;;13.12;nan;97626.47;5043535;28;20128;-79
2023/04/23 12:31:00;;;;;;;38.17;23.45;;;;;;;12.69;nan;97622.78;5040254;28;20494;-79
2023/04/23 12:33:43;;;;;;;39.17;22.67;;;;;;;12.85;nan;97616.66;5036319;28;20380;-78
2023/04/23 12:36:31;;;;;;;31.05;20.60;;;;;;;12.66;nan;97624.06;5041611;28;20194;-79
2023/04/23 12:39:19;;;;;;;33.40;20.50;;;;;;;12.56;nan;97629.97;5040733;28;20068;-79
2023/04/23 12:42:05;;;;;;;32.85;20.70;;;;;;;12.87;nan;97629.59;5044305;28;20127;-79
2023/04/23 12:44:50;;;;;;;32.58;21.30;;;;;;;12.51;nan;97637.00;5035874;28;20052;-79
2023/04/23 12:47:34;;;;;;;37.03;21.23;;;;;;;12.82;nan;97630.31;5046164;28;20048;-78
2023/04/23 12:50:18;;;;;;;36.28;22.00;;;;;;;12.82;nan;97632.16;5040750;28;20053;-79
2023/04/23 12:53:03;;;;;;;36.15;21.75;;;;;;;12.84;nan;97630.88;5040900;28;20048;-78
2023/04/23 12:55:48;;;;;;;37.72;21.08;;;;;;;12.35;nan;97631.50;5041972;28;20045;-79
2023/04/23 12:58:33;;;;;;;32.20;20.60;;;;;;;12.51;nan;97631.75;5041897;28;20094;-78